Latest Weather Observations for Redcliffe

IDQ60901

Issued at 3:41 pm EST Tuesday 26 September 2017 (issued every 10 minutes, with the page automatically refreshed every 10 minutes)

About weather observations | Map of Brisbane area stations | Latest observations for Brisbane area | Other Formats
Station Details ID: 040958 Name: REDCLIFFE Lat: -27.22 Lon: 153.09 Height: 12.6 m
Data from the previous 72 hours. | See also: Recent months at Redcliffe
Date/Time
EST
Temp
°C
App
Temp
°C
Dew
Point
°C
Rel
Hum
%
Delta-T
°C
Wind Press
QNH
hPa
Press
MSL
hPa
Rain since
9am
mm
Dir  Spd
km/h
Gust
km/h
Spd
kts
Gust
kts
26/03:30pm 22.9 19.7 15.2 62 4.6 SE 26 32 14 17 1013.6 1013.5 0.0
26/03:00pm 23.5 20.8 15.5 60 4.8 SE 24 30 13 16 1013.2 1013.1 0.0
26/02:30pm 24.1 20.6 15.6 59 5.1 SE 28 33 15 18 1013.3 1013.2 0.0
26/02:00pm 24.4 21.1 16.1 60 5.1 SE 28 32 15 17 1013.2 1013.1 0.0
26/01:30pm 24.2 19.9 15.9 59 5.0 SE 33 39 18 21 1013.2 1013.1 0.0
26/01:00pm 24.3 21.6 17.5 66 4.2 SE 28 33 15 18 1013.4 1013.3 0.0
26/12:59pm 24.0 21.2 17.3 66 4.2 SE 28 33 15 18 1013.4 1013.3 0.0
26/12:30pm 24.4 24.2 16.6 61 4.8 SE 13 13 7 7 1013.6 1013.5 0.0
26/12:00pm 23.4 23.1 16.4 64 4.3 ESE 13 15 7 8 1013.2 1013.1 0.0
26/11:30am 24.5 24.9 15.4 57 5.5 SE 7 11 4 6 1013.8 1013.7 0.0
26/11:00am 24.9 24.5 16.1 58 5.4 E 13 13 7 7 1013.9 1013.8 0.0
26/10:30am 24.0 23.7 16.5 63 4.6 E 13 15 7 8 1014.2 1014.1 0.0
26/10:00am 26.0 26.0 17.1 58 5.5 ESE 13 15 7 8 1014.3 1014.2 0.0
26/09:30am 26.3 27.5 18.2 61 5.1 ESE 9 11 5 6 1014.4 1014.3 0.0
26/09:00am 25.3 26.2 17.5 62 4.9 ENE 9 11 5 6 1014.2 1014.1 0.0
26/08:30am 24.3 25.9 16.8 63 4.6 NE 4 9 2 5 1014.1 1014.0 0.0
26/08:00am 23.2 24.8 17.9 72 3.3 WNW 6 9 3 5 1013.5 1013.4 0.0
26/07:30am 21.4 21.7 17.0 76 2.7 N 11 13 6 7 1013.2 1013.1 0.0
26/07:00am 21.0 22.1 17.2 79 2.3 NW 7 11 4 6 1012.9 1012.8 0.0
26/06:30am 19.6 19.9 17.0 85 1.6 W 11 13 6 7 1013.1 1013.0 0.0
26/06:00am 19.1 20.3 16.9 87 1.3 W 6 7 3 4 1012.8 1012.7 0.0
26/05:30am 19.6 20.8 17.4 87 1.3 WNW 7 9 4 5 1012.6 1012.5 0.0
26/05:00am 20.1 22.9 17.9 87 1.4 CALM 0 0 0 0 1012.2 1012.1 0.0
26/04:30am 19.4 19.9 16.6 84 1.7 E 9 11 5 6 1011.8 1011.7 0.0
26/04:00am 19.9 20.9 16.9 83 1.8 S 7 9 4 5 1011.3 1011.2 0.0
26/03:30am 19.9 20.5 16.7 82 1.9 S 9 11 5 6 1011.3 1011.2 0.0
26/03:00am 20.3 21.4 16.5 79 2.3 SW 6 9 3 5 1010.8 1010.7 0.0
26/02:30am 21.3 22.2 17.5 79 2.3 N 9 13 5 7 1010.2 1010.1 0.0
26/02:00am 21.6 22.4 17.4 77 2.6 N 9 11 5 6 1010.8 1010.7 0.0
26/01:30am 21.9 22.1 17.7 77 2.6 NNW 13 19 7 10 1010.8 1010.7 0.0
26/01:00am 21.9 21.4 17.7 77 2.6 NNW 17 24 9 13 1011.1 1011.0 0.0
26/12:30am 22.3 21.4 17.7 75 2.9 NNW 19 26 10 14 1010.8 1010.7 0.0
26/12:00am 22.5 21.7 18.1 76 2.7 N 19 24 10 13 1010.7 1010.6 0.0
 
Date/Time
EST
Temp
°C
App
Temp
°C
Dew
Point
°C
Rel
Hum
%
Delta-T
°C
Wind Press
QNH
hPa
Press
MSL
hPa
Rain since
9am
mm
Dir  Spd
km/h
Gust
km/h
Spd
kts
Gust
kts
25/11:30pm 22.7 21.9 18.0 75 2.9 N 19 26 10 14 1010.7 1010.6 0.0
25/11:00pm 23.0 22.1 18.3 75 3.0 N 20 26 11 14 1010.7 1010.6 0.0
25/10:30pm 23.0 22.1 18.1 74 3.1 N 20 26 11 14 1011.0 1010.9 0.0
25/10:00pm 23.3 22.5 18.4 74 3.1 N 20 26 11 14 1011.0 1010.9 0.0
25/09:30pm 23.2 22.0 18.5 75 3.0 N 22 28 12 15 1010.9 1010.8 0.0
25/09:00pm 23.1 22.4 18.6 76 2.8 N 20 26 11 14 1011.2 1011.1 0.0
25/08:30pm 22.9 22.2 18.7 77 2.7 N 20 28 11 15 1011.2 1011.1 0.0
25/08:00pm 23.0 22.3 18.7 77 2.7 N 20 26 11 14 1011.0 1010.9 0.0
25/07:30pm 23.2 21.8 18.7 76 2.8 N 24 32 13 17 1010.6 1010.5 0.0
25/07:00pm 23.4 21.3 18.9 76 2.9 N 28 35 15 19 1010.4 1010.3 0.0
25/06:30pm 23.5 20.6 18.8 75 3.0 N 32 39 17 21 1010.1 1010.0 0.0
25/06:00pm 23.8 20.3 18.7 73 3.2 N 35 41 19 22 1009.7 1009.6 0.0
25/05:30pm 24.0 20.0 18.4 71 3.5 N 37 43 20 23 1009.4 1009.3 0.0
25/05:00pm 24.6 19.7 18.1 67 4.1 N 41 48 22 26 1009.3 1009.2 0.0
25/04:30pm 25.0 20.8 18.0 65 4.4 N 37 46 20 25 1009.2 1009.1 0.0
25/04:00pm 25.1 20.6 18.3 66 4.3 N 39 46 21 25 1009.1 1009.0 0.0
25/03:30pm 25.5 20.6 18.2 64 4.6 N 41 50 22 27 1009.1 1009.0 0.0
25/03:00pm 26.3 21.4 18.2 61 5.1 N 41 48 22 26 1009.2 1009.1 0.0
25/02:30pm 26.4 21.9 18.3 61 5.1 N 39 48 21 26 1009.5 1009.4 0.0
25/02:00pm 26.1 21.3 17.5 59 5.4 NNE 39 44 21 24 1009.9 1009.8 0.0
25/01:30pm 26.2 22.6 17.6 59 5.4 NNE 33 41 18 22 1010.3 1010.2 0.0
25/01:00pm 26.8 22.7 16.4 53 6.4 NNE 33 39 18 21 1010.6 1010.5 0.0
25/12:30pm 28.0 23.8 17.2 52 6.8 NNE 35 39 19 21 1011.2 1011.1 0.0
25/12:00pm 28.5 24.0 17.4 51 7.0 NE 37 43 20 23 1011.7 1011.6 0.0
25/11:30am 27.4 23.2 16.1 50 7.0 NE 33 39 18 21 1012.4 1012.3 0.0
25/11:00am 27.5 23.0 16.5 51 6.8 NE 35 39 19 21 1012.9 1012.8 0.0
25/10:30am 26.7 22.1 15.1 49 7.0 NE 33 39 18 21 1013.4 1013.3 0.0
25/10:00am 25.9 23.5 15.3 52 6.4 NE 22 28 12 15 1014.1 1014.0 0.0
25/09:30am 26.2 24.6 15.0 50 6.8 NNE 17 20 9 11 1014.4 1014.3 0.0
25/09:00am 24.8 23.6 15.1 54 5.8 NNE 15 20 8 11 1014.2 1014.1 0.0
25/08:30am 23.2 19.7 15.5 62 4.6 N 28 32 15 17 1013.8 1013.7 0.0
25/08:00am 22.4 19.5 16.0 67 3.9 N 26 30 14 16 1013.9 1013.8 0.0
25/07:30am 21.7 18.3 15.8 69 3.5 N 28 33 15 18 1013.6 1013.5 0.0
25/07:00am 21.1 17.2 15.6 71 3.3 N 30 35 16 19 1013.1 1013.0 0.0
25/06:30am 20.9 16.6 15.9 73 3.0 N 33 39 18 21 1012.6 1012.5 0.0
25/06:00am 20.6 16.0 16.0 75 2.8 N 35 41 19 22 1012.1 1012.0 0.0
25/05:30am 20.5 15.8 15.9 75 2.7 NNE 35 39 19 21 1011.8 1011.7 0.0
25/05:00am 20.7 16.4 15.9 74 2.9 NNE 33 39 18 21 1011.6 1011.5 0.0
25/04:30am 20.9 16.9 16.1 74 2.9 N 32 35 17 19 1011.3 1011.2 0.0
25/04:00am 20.8 17.2 16.2 75 2.8 N 30 35 16 19 1011.0 1010.9 0.0
25/03:30am 20.9 16.4 16.3 75 2.8 N 35 39 19 21 1010.7 1010.6 0.0
25/03:00am 20.9 17.1 16.7 77 2.6 NNE 32 35 17 19 1010.5 1010.4 0.0
25/02:30am 21.4 19.2 17.0 76 2.7 N 24 32 13 17 1010.8 1010.7 0.0
25/02:00am 21.3 19.9 17.1 77 2.6 N 20 30 11 16 1010.8 1010.7 0.0
25/01:30am 21.4 20.6 17.2 77 2.6 N 17 26 9 14 1010.9 1010.8 0.0
25/01:00am 21.4 18.9 17.0 76 2.7 N 26 33 14 18 1011.0 1010.9 0.0
25/12:30am 21.6 18.0 17.2 76 2.7 N 32 39 17 21 1011.0 1010.9 0.0
25/12:00am 21.5 17.7 17.1 76 2.7 N 33 41 18 22 1011.1 1011.0 0.0
 
Date/Time
EST
Temp
°C
App
Temp
°C
Dew
Point
°C
Rel
Hum
%
Delta-T
°C
Wind Press
QNH
hPa
Press
MSL
hPa
Rain since
9am
mm
Dir  Spd
km/h
Gust
km/h
Spd
kts
Gust
kts
24/11:30pm 21.5 17.6 16.9 75 2.8 N 33 41 18 22 1011.3 1011.2 0.0
24/11:00pm 21.8 17.9 17.0 74 2.9 N 33 39 18 21 1011.5 1011.4 0.0
24/10:30pm 22.0 18.1 16.9 73 3.1 N 33 39 18 21 1011.7 1011.6 0.0
24/10:00pm 22.3 17.3 17.0 72 3.3 N 39 44 21 24 1011.5 1011.4 0.0
24/09:30pm 22.7 18.1 17.2 71 3.4 N 37 46 20 25 1011.3 1011.2 0.0
24/09:00pm 22.7 18.2 17.4 72 3.3 N 37 44 20 24 1011.3 1011.2 0.0
24/08:30pm 22.7 17.9 17.6 73 3.2 N 39 48 21 26 1011.0 1010.9 0.0
24/08:00pm 22.9 18.9 17.6 72 3.3 N 35 43 19 23 1010.8 1010.7 0.0
24/07:30pm 23.2 18.2 17.9 72 3.3 N 41 48 22 26 1010.3 1010.2 0.0
24/07:00pm 23.3 18.7 18.0 72 3.3 N 39 48 21 26 1009.8 1009.7 0.0
24/06:30pm 23.4 18.1 18.1 72 3.3 N 43 50 23 27 1009.3 1009.2 0.0
24/06:00pm 23.5 18.0 18.2 72 3.3 N 44 50 24 27 1009.1 1009.0 0.0
24/05:30pm 23.7 17.7 17.9 70 3.6 N 46 54 25 29 1008.9 1008.8 0.0
24/05:00pm 24.1 17.7 17.8 68 3.9 N 48 56 26 30 1008.7 1008.6 0.0
24/04:30pm 24.5 18.4 17.7 66 4.2 NNE 46 54 25 29 1008.6 1008.5 0.0
24/04:00pm 24.8 18.8 17.8 65 4.4 NNE 46 54 25 29 1008.5 1008.4 0.0
24/03:30pm 25.0 19.2 17.5 63 4.7 NNE 44 54 24 29 1008.5 1008.4 0.0
24/03:00pm 25.2 19.7 17.7 63 4.7 NNE 43 50 23 27 1008.7 1008.6 0.0
24/02:30pm 25.5 19.8 17.7 62 4.9 NNE 44 54 24 29 1009.0 1008.9 0.0
24/02:00pm 25.8 20.7 17.7 61 5.1 NNE 41 50 22 27 1009.3 1009.2 0.0
24/01:30pm 26.0 21.6 17.6 60 5.3 NNE 37 44 20 24 1009.7 1009.6 0.0
24/01:00pm 26.4 22.4 17.7 58 5.5 NNE 35 39 19 21 1010.2 1010.1 0.0
24/12:30pm 26.9 23.1 17.1 55 6.1 NE 33 37 18 20 1010.7 1010.6 0.0
24/12:00pm 26.5 22.7 16.7 55 6.1 NE 32 35 17 19 1011.3 1011.2 0.0
24/11:30am 27.1 23.1 16.1 51 6.8 NE 32 37 17 20 1012.0 1011.9 0.0
24/11:00am 27.5 23.6 15.5 48 7.3 NE 30 33 16 18 1012.6 1012.5 0.0
24/10:30am 26.4 23.3 14.5 48 7.1 NE 24 28 13 15 1013.2 1013.1 0.0
24/10:00am 25.3 23.5 14.4 50 6.5 NNE 17 24 9 13 1013.6 1013.5 0.0
24/09:30am 24.9 23.1 14.4 52 6.2 NNE 17 19 9 10 1013.9 1013.8 0.0
24/09:00am 23.6 21.6 15.4 60 4.9 N 20 28 11 15 1014.0 1013.9 0.0
24/08:30am 22.7 19.4 15.0 61 4.6 N 26 32 14 17 1013.9 1013.8 0.0
24/08:00am 22.1 19.6 15.2 65 4.1 N 22 30 12 16 1014.1 1014.0 0.0
24/07:30am 21.1 17.3 14.7 67 3.8 N 28 33 15 18 1013.7 1013.6 0.0
24/07:00am 20.5 16.7 14.8 70 3.3 N 28 35 15 19 1013.3 1013.2 0.0
24/06:30am 20.1 15.9 14.7 71 3.2 N 30 37 16 20 1013.3 1013.2 0.0
24/06:00am 19.8 15.1 14.4 71 3.1 N 32 37 17 20 1013.1 1013.0 0.0
24/05:30am 20.1 16.2 14.5 70 3.3 N 28 35 15 19 1012.9 1012.8 0.0
24/05:00am 20.1 17.0 14.5 70 3.3 N 24 32 13 17 1012.8 1012.7 0.0
24/04:30am 20.1 17.6 14.2 69 3.4 N 20 30 11 16 1012.7 1012.6 0.0
24/04:00am 20.4 17.8 13.8 66 3.8 N 20 28 11 15 1012.4 1012.3 0.0
24/03:30am 20.4 16.7 13.8 66 3.8 N 26 30 14 16 1012.3 1012.2 0.0
24/03:00am 20.3 18.0 14.2 68 3.5 N 19 26 10 14 1012.3 1012.2 0.0
24/02:30am 20.6 18.4 14.5 68 3.6 N 19 26 10 14 1012.3 1012.2 0.0
24/02:00am 20.8 18.8 14.0 65 3.9 NNW 17 26 9 14 1012.6 1012.5 0.0
24/01:30am 21.0 18.8 14.4 66 3.9 N 19 26 10 14 1012.7 1012.6 0.0
24/01:00am 20.9 16.6 14.3 66 3.8 N 30 35 16 19 1012.8 1012.7 0.0
24/12:30am 21.1 16.8 14.3 65 4.0 N 30 37 16 20 1013.1 1013.0 0.0
24/12:00am 21.1 16.8 14.3 65 4.0 N 30 35 16 19 1013.4 1013.3 0.0
 
Date/Time
EST
Temp
°C
App
Temp
°C
Dew
Point
°C
Rel
Hum
%
Delta-T
°C
Wind Press
QNH
hPa
Press
MSL
hPa
Rain since
9am
mm
Dir  Spd
km/h
Gust
km/h
Spd
kts
Gust
kts
23/11:30pm 21.4 17.3 14.8 66 3.9 N 30 35 16 19 1013.4 1013.3 0.0
23/11:00pm 21.6 17.4 14.7 65 4.1 N 30 35 16 19 1013.5 1013.4 0.0
23/10:30pm 21.9 18.4 15.5 67 3.8 N 28 32 15 17 1013.6 1013.5 0.0
23/10:00pm 22.1 18.7 15.9 68 3.7 N 28 33 15 18 1013.7 1013.6 0.0
23/09:30pm 22.2 18.9 16.0 68 3.7 N 28 32 15 17 1014.0 1013.9 0.0
23/09:00pm 22.4 20.0 16.4 69 3.6 N 24 28 13 15 1014.0 1013.9 0.0
23/08:30pm 22.5 20.0 17.0 71 3.4 N 26 30 14 16 1013.8 1013.7 0.0
23/08:00pm 22.7 19.5 17.2 71 3.4 N 30 33 16 18 1013.6 1013.5 0.0
23/07:30pm 22.8 19.2 17.3 71 3.4 N 32 37 17 20 1013.3 1013.2 0.0
23/07:00pm 22.9 19.1 17.1 70 3.6 N 33 39 18 21 1012.9 1012.8 0.0
23/06:30pm 23.2 18.8 16.7 67 4.0 N 35 41 19 22 1012.6 1012.5 0.0
23/06:00pm 23.4 18.9 16.4 64 4.3 NNE 35 41 19 22 1012.3 1012.2 0.0
23/05:30pm 23.7 19.2 16.5 64 4.4 NNE 35 43 19 23 1012.1 1012.0 0.0
23/05:00pm 24.2 19.8 16.7 63 4.6 NNE 35 43 19 23 1011.9 1011.8 0.0
23/04:30pm 24.6 20.4 17.1 63 4.6 NNE 35 39 19 21 1011.8 1011.7 0.0
23/04:00pm 24.7 20.5 17.2 63 4.7 NNE 35 41 19 22 1011.8 1011.7 0.0

Latest Capital City Observations: Canberra | Sydney | Melbourne | Brisbane | Adelaide | Perth | Hobart | Darwin

Other Formats:

Comma delimited format used in spreadsheet applications
http://www.bom.gov.au/fwo/IDQ60901/IDQ60901.95591.axf

JavaScript Object Notation format (JSON) in row-major order
http://www.bom.gov.au/fwo/IDQ60901/IDQ60901.95591.json